SHT21B EGLL-EGJB
Flight info
| Callsign | SHT21B |
|---|---|
| Flight time | 0h 40m |
| Altitude | 19000 |
| Route | GASGU2J GASGU N514 EVTES N621 SAM/N0344F180 N63 LELNA LELNA1V |
| Aircraft | A320/M-SDE3FGHIRWY/LB1 |
Departure
| Time | 2026-04-25 17:34 |
|---|---|
| Airport | London Heathrow Airport (EGLL) |
Arrival
| Time | 2026-04-25 18:14 |
|---|---|
| Airport | Guernsey Airport (EGJB) |
| Time | Latitude | Longitude | Altitude | Speed | Heading |
|---|---|---|---|---|---|
| 2026-04-25 17:05 | 51.47407 | -0.48760 | 85 ft | 0 kts | 178° |
| 2026-04-25 17:24 | 51.47417 | -0.48760 | 89 ft | 4 kts | 177° |
| 2026-04-25 17:24 | 51.47444 | -0.48764 | 88 ft | 4 kts | 169° |
| 2026-04-25 17:24 | 51.47470 | -0.48776 | 90 ft | 4 kts | 149° |
| 2026-04-25 17:24 | 51.47485 | -0.48801 | 87 ft | 2 kts | 91° |
| 2026-04-25 17:25 | 51.47485 | -0.48811 | 87 ft | 0 kts | 90° |
| 2026-04-25 17:27 | 51.47485 | -0.48788 | 87 ft | 6 kts | 90° |
| 2026-04-25 17:27 | 51.47485 | -0.48718 | 85 ft | 6 kts | 90° |
| 2026-04-25 17:27 | 51.47485 | -0.48697 | 87 ft | 6 kts | 90° |
| 2026-04-25 17:28 | 51.47480 | -0.48501 | 89 ft | 12 kts | 122° |
| 2026-04-25 17:28 | 51.47388 | -0.48474 | 85 ft | 14 kts | 181° |
| 2026-04-25 17:28 | 51.47299 | -0.48476 | 85 ft | 12 kts | 180° |
| 2026-04-25 17:28 | 51.47216 | -0.48476 | 85 ft | 15 kts | 180° |
| 2026-04-25 17:29 | 51.47065 | -0.48475 | 85 ft | 25 kts | 179° |
| 2026-04-25 17:29 | 51.46890 | -0.48471 | 87 ft | 26 kts | 178° |
| 2026-04-25 17:29 | 51.46759 | -0.48479 | 85 ft | 12 kts | 201° |
| 2026-04-25 17:29 | 51.46739 | -0.48585 | 85 ft | 10 kts | 267° |
| 2026-04-25 17:30 | 51.46737 | -0.48666 | 85 ft | 11 kts | 268° |
| 2026-04-25 17:30 | 51.46666 | -0.48750 | 85 ft | 10 kts | 179° |
| 2026-04-25 17:30 | 51.46619 | -0.48758 | 87 ft | 0 kts | 195° |
| 2026-04-25 17:30 | 51.46618 | -0.48759 | 88 ft | 0 kts | 195° |
| 2026-04-25 17:32 | 51.46609 | -0.48763 | 89 ft | 7 kts | 197° |
| 2026-04-25 17:32 | 51.46534 | -0.48787 | 84 ft | 11 kts | 171° |
| 2026-04-25 17:32 | 51.46485 | -0.48725 | 86 ft | 8 kts | 116° |
| 2026-04-25 17:32 | 51.46479 | -0.48646 | 86 ft | 7 kts | 90° |
| 2026-04-25 17:33 | 51.46481 | -0.48436 | 87 ft | 48 kts | 89° |
| 2026-04-25 17:33 | 51.46481 | -0.47509 | 81 ft | 116 kts | 89° |
| 2026-04-25 17:33 | 51.46489 | -0.45922 | 87 ft | 167 kts | 90° |
| 2026-04-25 17:33 | 51.46490 | -0.44039 | 640 ft | 168 kts | 89° |
| 2026-04-25 17:34 | 51.46520 | -0.42137 | 1356 ft | 169 kts | 92° |
| 2026-04-25 17:34 | 51.46071 | -0.40427 | 2072 ft | 171 kts | 128° |
| 2026-04-25 17:34 | 51.45350 | -0.38952 | 2773 ft | 169 kts | 124° |
| 2026-04-25 17:34 | 51.44634 | -0.37354 | 3277 ft | 184 kts | 123° |
| 2026-04-25 17:35 | 51.43850 | -0.35570 | 3640 ft | 207 kts | 126° |
| 2026-04-25 17:35 | 51.42761 | -0.33897 | 4018 ft | 233 kts | 147° |
| 2026-04-25 17:35 | 51.41177 | -0.32879 | 4439 ft | 258 kts | 170° |
| 2026-04-25 17:35 | 51.39340 | -0.33003 | 5154 ft | 270 kts | 195° |
| 2026-04-25 17:36 | 51.37646 | -0.34348 | 5798 ft | 278 kts | 218° |
| 2026-04-25 17:36 | 51.36191 | -0.36386 | 5974 ft | 277 kts | 222° |
| 2026-04-25 17:36 | 51.34771 | -0.38464 | 6011 ft | 277 kts | 223° |
| 2026-04-25 17:36 | 51.33357 | -0.40548 | 6016 ft | 277 kts | 223° |
| 2026-04-25 17:37 | 51.31945 | -0.42627 | 6010 ft | 276 kts | 223° |
| 2026-04-25 17:37 | 51.30723 | -0.44986 | 6009 ft | 276 kts | 239° |
| 2026-04-25 17:37 | 51.29947 | -0.47780 | 6012 ft | 276 kts | 254° |
| 2026-04-25 17:37 | 51.29431 | -0.50732 | 6011 ft | 276 kts | 255° |
| 2026-04-25 17:38 | 51.28903 | -0.53684 | 6011 ft | 276 kts | 254° |
| 2026-04-25 17:38 | 51.28722 | -0.54683 | 6013 ft | 276 kts | 254° |
| 2026-04-25 17:38 | 51.27819 | -0.59573 | 6011 ft | 276 kts | 253° |
| 2026-04-25 17:38 | 51.27248 | -0.62500 | 6009 ft | 276 kts | 253° |
| 2026-04-25 17:39 | 51.26670 | -0.65427 | 6012 ft | 276 kts | 253° |
| 2026-04-25 17:39 | 51.26091 | -0.68355 | 6007 ft | 276 kts | 253° |
| 2026-04-25 17:39 | 51.25520 | -0.71257 | 6014 ft | 276 kts | 253° |
| 2026-04-25 17:39 | 51.24947 | -0.74180 | 6013 ft | 276 kts | 252° |
| 2026-04-25 17:40 | 51.24371 | -0.77106 | 6011 ft | 276 kts | 253° |
| 2026-04-25 17:40 | 51.23799 | -0.80033 | 6007 ft | 276 kts | 253° |
| 2026-04-25 17:40 | 51.23225 | -0.82963 | 6010 ft | 277 kts | 252° |
| 2026-04-25 17:40 | 51.22649 | -0.85892 | 6008 ft | 277 kts | 253° |
| 2026-04-25 17:41 | 51.22074 | -0.88818 | 6009 ft | 276 kts | 252° |
| 2026-04-25 17:41 | 51.21499 | -0.91740 | 6008 ft | 276 kts | 253° |
| 2026-04-25 17:41 | 51.21110 | -0.93721 | 6007 ft | 276 kts | 252° |
| 2026-04-25 17:41 | 51.20349 | -0.96525 | 6012 ft | 277 kts | 238° |
| 2026-04-25 17:42 | 51.19181 | -0.99027 | 6605 ft | 283 kts | 231° |
| 2026-04-25 17:42 | 51.17965 | -1.01496 | 7027 ft | 282 kts | 232° |
| 2026-04-25 17:42 | 51.16768 | -1.03959 | 7155 ft | 280 kts | 232° |
| 2026-04-25 17:42 | 51.15580 | -1.06414 | 7182 ft | 280 kts | 232° |
| 2026-04-25 17:43 | 51.14390 | -1.08870 | 7196 ft | 280 kts | 232° |
| 2026-04-25 17:43 | 51.13201 | -1.11313 | 7191 ft | 279 kts | 232° |
| 2026-04-25 17:43 | 51.12008 | -1.13756 | 7188 ft | 279 kts | 232° |
| 2026-04-25 17:43 | 51.10816 | -1.16195 | 7199 ft | 279 kts | 232° |
| 2026-04-25 17:44 | 51.09625 | -1.18635 | 7194 ft | 279 kts | 232° |
| 2026-04-25 17:44 | 51.08367 | -1.20987 | 7189 ft | 279 kts | 224° |
| 2026-04-25 17:44 | 51.06847 | -1.22942 | 7423 ft | 285 kts | 212° |
| 2026-04-25 17:44 | 51.05173 | -1.24609 | 8362 ft | 284 kts | 213° |
| 2026-04-25 17:45 | 51.03502 | -1.26309 | 9255 ft | 286 kts | 213° |
| 2026-04-25 17:45 | 51.02366 | -1.27475 | 9834 ft | 289 kts | 214° |
| 2026-04-25 17:45 | 51.00093 | -1.29814 | 10610 ft | 305 kts | 214° |
| 2026-04-25 17:45 | 50.98244 | -1.31715 | 10842 ft | 329 kts | 214° |
| 2026-04-25 17:46 | 50.96924 | -1.33069 | 11115 ft | 339 kts | 214° |
| 2026-04-25 17:46 | 50.94188 | -1.35580 | 11999 ft | 347 kts | 208° |
| 2026-04-25 17:46 | 50.91998 | -1.37332 | 12763 ft | 350 kts | 208° |
| 2026-04-25 17:46 | 50.89816 | -1.39076 | 13502 ft | 353 kts | 208° |
| 2026-04-25 17:47 | 50.87608 | -1.40836 | 14215 ft | 356 kts | 208° |
| 2026-04-25 17:47 | 50.85386 | -1.42608 | 14856 ft | 359 kts | 208° |
| 2026-04-25 17:47 | 50.83144 | -1.44397 | 15489 ft | 363 kts | 208° |
| 2026-04-25 17:47 | 50.80881 | -1.46202 | 16118 ft | 366 kts | 208° |
| 2026-04-25 17:48 | 50.76295 | -1.49849 | 17362 ft | 373 kts | 208° |
| 2026-04-25 17:48 | 50.73964 | -1.51699 | 17991 ft | 376 kts | 208° |
| 2026-04-25 17:48 | 50.71615 | -1.53557 | 18592 ft | 379 kts | 208° |
| 2026-04-25 17:49 | 50.69245 | -1.55429 | 19044 ft | 383 kts | 208° |
| 2026-04-25 17:49 | 50.66859 | -1.57313 | 19168 ft | 384 kts | 208° |
| 2026-04-25 17:49 | 50.64447 | -1.59217 | 19217 ft | 391 kts | 208° |
| 2026-04-25 17:49 | 50.62005 | -1.61143 | 19216 ft | 393 kts | 208° |
| 2026-04-25 17:50 | 50.59558 | -1.63072 | 19215 ft | 394 kts | 208° |
| 2026-04-25 17:50 | 50.57111 | -1.64997 | 19214 ft | 394 kts | 208° |
| 2026-04-25 17:50 | 50.54656 | -1.66923 | 19215 ft | 394 kts | 208° |
| 2026-04-25 17:50 | 50.52207 | -1.68843 | 19213 ft | 394 kts | 208° |
| 2026-04-25 17:51 | 50.49756 | -1.70764 | 19214 ft | 394 kts | 208° |
| 2026-04-25 17:51 | 50.47301 | -1.72688 | 19214 ft | 394 kts | 208° |
| 2026-04-25 17:51 | 50.44847 | -1.74611 | 19214 ft | 394 kts | 208° |
| 2026-04-25 17:51 | 50.42392 | -1.76531 | 19215 ft | 394 kts | 208° |
| 2026-04-25 17:52 | 50.39937 | -1.78444 | 19216 ft | 394 kts | 208° |
| 2026-04-25 17:52 | 50.38276 | -1.79739 | 19215 ft | 394 kts | 208° |
| 2026-04-25 17:52 | 50.35023 | -1.82272 | 19217 ft | 394 kts | 208° |
| 2026-04-25 17:52 | 50.32566 | -1.84180 | 19213 ft | 393 kts | 208° |
| 2026-04-25 17:53 | 50.30141 | -1.86060 | 19205 ft | 386 kts | 208° |
| 2026-04-25 17:53 | 50.27747 | -1.87918 | 19208 ft | 384 kts | 208° |
| 2026-04-25 17:53 | 50.25353 | -1.89778 | 19209 ft | 384 kts | 208° |
| 2026-04-25 17:53 | 50.22928 | -1.91661 | 19207 ft | 384 kts | 208° |
| 2026-04-25 17:54 | 50.20583 | -1.93479 | 19209 ft | 384 kts | 208° |
| 2026-04-25 17:54 | 50.18187 | -1.95330 | 19207 ft | 384 kts | 208° |
| 2026-04-25 17:54 | 50.15793 | -1.97173 | 19207 ft | 384 kts | 208° |
| 2026-04-25 17:54 | 50.13402 | -1.99014 | 19207 ft | 384 kts | 208° |
| 2026-04-25 17:55 | 50.11025 | -2.00845 | 18744 ft | 377 kts | 208° |
| 2026-04-25 17:55 | 50.08658 | -2.02669 | 17539 ft | 380 kts | 208° |
| 2026-04-25 17:55 | 50.06299 | -2.04485 | 16525 ft | 377 kts | 208° |
| 2026-04-25 17:55 | 50.03966 | -2.06273 | 15600 ft | 372 kts | 208° |
| 2026-04-25 17:56 | 50.01695 | -2.08008 | 15231 ft | 357 kts | 207° |
| 2026-04-25 17:56 | 49.99539 | -2.09798 | 14970 ft | 348 kts | 214° |
| 2026-04-25 17:56 | 49.97605 | -2.12037 | 14701 ft | 345 kts | 223° |
| 2026-04-25 17:56 | 49.95937 | -2.14681 | 14458 ft | 343 kts | 230° |
| 2026-04-25 17:57 | 49.94363 | -2.17465 | 14252 ft | 342 kts | 230° |
| 2026-04-25 17:57 | 49.92789 | -2.20227 | 14181 ft | 341 kts | 230° |
| 2026-04-25 17:57 | 49.91213 | -2.22984 | 14197 ft | 342 kts | 230° |
| 2026-04-25 17:57 | 49.90679 | -2.23915 | 14193 ft | 342 kts | 230° |
| 2026-04-25 17:58 | 49.88054 | -2.28488 | 14194 ft | 342 kts | 229° |
| 2026-04-25 17:58 | 49.86468 | -2.31241 | 14195 ft | 342 kts | 229° |
| 2026-04-25 17:58 | 49.84883 | -2.33991 | 14193 ft | 342 kts | 229° |
| 2026-04-25 17:58 | 49.83298 | -2.36743 | 14192 ft | 342 kts | 229° |
| 2026-04-25 17:59 | 49.81722 | -2.39486 | 14190 ft | 341 kts | 230° |
| 2026-04-25 17:59 | 49.80140 | -2.42232 | 14194 ft | 342 kts | 230° |
| 2026-04-25 17:59 | 49.78559 | -2.44973 | 14193 ft | 342 kts | 229° |
| 2026-04-25 17:59 | 49.76976 | -2.47713 | 14191 ft | 341 kts | 229° |
| 2026-04-25 18:00 | 49.75390 | -2.50449 | 14193 ft | 342 kts | 229° |
| 2026-04-25 18:00 | 49.73803 | -2.53185 | 14193 ft | 342 kts | 229° |
| 2026-04-25 18:00 | 49.72147 | -2.55821 | 14189 ft | 343 kts | 221° |
| 2026-04-25 18:00 | 49.70153 | -2.57845 | 14191 ft | 345 kts | 207° |
| 2026-04-25 18:01 | 49.67888 | -2.59063 | 14189 ft | 347 kts | 193° |
| 2026-04-25 18:01 | 49.65452 | -2.59413 | 14194 ft | 349 kts | 182° |
| 2026-04-25 18:01 | 49.63025 | -2.59505 | 14189 ft | 349 kts | 182° |
| 2026-04-25 18:01 | 49.60622 | -2.59604 | 13542 ft | 344 kts | 182° |
| 2026-04-25 18:02 | 49.58193 | -2.59714 | 12437 ft | 349 kts | 182° |
| 2026-04-25 18:02 | 49.55848 | -2.59825 | 12242 ft | 325 kts | 182° |
| 2026-04-25 18:02 | 49.53655 | -2.59926 | 11922 ft | 309 kts | 182° |
| 2026-04-25 18:02 | 49.51537 | -2.60023 | 11358 ft | 302 kts | 182° |
| 2026-04-25 18:03 | 49.49467 | -2.60116 | 10947 ft | 290 kts | 182° |
| 2026-04-25 18:03 | 49.47522 | -2.60237 | 10744 ft | 271 kts | 188° |
| 2026-04-25 18:03 | 49.45808 | -2.61100 | 10594 ft | 250 kts | 211° |
| 2026-04-25 18:03 | 49.44528 | -2.62733 | 10451 ft | 232 kts | 232° |
| 2026-04-25 18:04 | 49.43734 | -2.64820 | 10113 ft | 224 kts | 252° |
| 2026-04-25 18:04 | 49.43445 | -2.67151 | 9664 ft | 222 kts | 268° |
| 2026-04-25 18:04 | 49.43364 | -2.69517 | 9195 ft | 221 kts | 267° |
| 2026-04-25 18:04 | 49.43275 | -2.71864 | 8755 ft | 220 kts | 267° |
| 2026-04-25 18:05 | 49.43183 | -2.74206 | 8331 ft | 219 kts | 267° |
| 2026-04-25 18:05 | 49.43092 | -2.76529 | 7898 ft | 218 kts | 267° |
| 2026-04-25 18:05 | 49.43017 | -2.78845 | 7487 ft | 215 kts | 273° |
| 2026-04-25 18:05 | 49.43204 | -2.81046 | 7193 ft | 204 kts | 285° |
| 2026-04-25 18:06 | 49.43696 | -2.83069 | 6737 ft | 202 kts | 298° |
| 2026-04-25 18:06 | 49.44463 | -2.84853 | 6270 ft | 199 kts | 311° |
| 2026-04-25 18:06 | 49.45407 | -2.86401 | 5766 ft | 199 kts | 314° |
| 2026-04-25 18:06 | 49.46364 | -2.87955 | 5239 ft | 201 kts | 313° |
| 2026-04-25 18:07 | 49.47326 | -2.89516 | 4699 ft | 201 kts | 313° |
| 2026-04-25 18:07 | 49.48221 | -2.91192 | 4141 ft | 201 kts | 298° |
| 2026-04-25 18:07 | 49.48614 | -2.93204 | 3652 ft | 199 kts | 273° |
| 2026-04-25 18:07 | 49.48390 | -2.95268 | 3442 ft | 193 kts | 248° |
| 2026-04-25 18:08 | 49.47631 | -2.96958 | 3352 ft | 194 kts | 223° |
| 2026-04-25 18:08 | 49.46464 | -2.97990 | 3306 ft | 196 kts | 197° |
| 2026-04-25 18:08 | 49.45112 | -2.98135 | 3266 ft | 197 kts | 171° |
| 2026-04-25 18:08 | 49.43850 | -2.97353 | 3221 ft | 197 kts | 144° |
| 2026-04-25 18:09 | 49.42943 | -2.95803 | 3177 ft | 197 kts | 118° |
| 2026-04-25 18:09 | 49.42543 | -2.93806 | 3137 ft | 196 kts | 94° |
| 2026-04-25 18:09 | 49.42569 | -2.91712 | 3091 ft | 196 kts | 86° |
| 2026-04-25 18:09 | 49.42591 | -2.91033 | 3076 ft | 196 kts | 86° |
| 2026-04-25 18:10 | 49.42701 | -2.87532 | 2994 ft | 196 kts | 87° |
| 2026-04-25 18:10 | 49.42764 | -2.85452 | 2960 ft | 195 kts | 87° |
| 2026-04-25 18:10 | 49.42826 | -2.83370 | 2919 ft | 195 kts | 87° |
| 2026-04-25 18:10 | 49.42888 | -2.81289 | 2815 ft | 195 kts | 87° |
| 2026-04-25 18:11 | 49.42950 | -2.79213 | 2598 ft | 194 kts | 87° |
| 2026-04-25 18:11 | 49.43010 | -2.77157 | 2343 ft | 191 kts | 88° |
| 2026-04-25 18:11 | 49.43069 | -2.75173 | 2102 ft | 179 kts | 88° |
| 2026-04-25 18:11 | 49.43122 | -2.73339 | 1873 ft | 165 kts | 88° |
| 2026-04-25 18:12 | 49.43171 | -2.71654 | 1655 ft | 152 kts | 88° |
| 2026-04-25 18:12 | 49.43216 | -2.70079 | 1471 ft | 143 kts | 88° |
| 2026-04-25 18:12 | 49.43258 | -2.68577 | 1311 ft | 139 kts | 88° |
| 2026-04-25 18:12 | 49.43301 | -2.67099 | 1099 ft | 138 kts | 87° |
| 2026-04-25 18:13 | 49.43345 | -2.65626 | 893 ft | 137 kts | 88° |
| 2026-04-25 18:13 | 49.43382 | -2.64172 | 688 ft | 135 kts | 87° |
| 2026-04-25 18:13 | 49.43420 | -2.62724 | 512 ft | 135 kts | 85° |
| 2026-04-25 18:14 | 49.43492 | -2.60441 | 333 ft | 83 kts | 87° |
| 2026-04-25 18:14 | 49.43503 | -2.60004 | 349 ft | 23 kts | 88° |
| 2026-04-25 18:14 | 49.43465 | -2.59866 | 344 ft | 13 kts | 180° |
| 2026-04-25 18:14 | 49.43396 | -2.59859 | 344 ft | 7 kts | 177° |
| 2026-04-25 18:15 | 49.43388 | -2.59859 | 344 ft | 0 kts | 178° |
| 2026-04-25 18:15 | 49.43382 | -2.59858 | 344 ft | 5 kts | 178° |
| 2026-04-25 18:15 | 49.43361 | -2.59851 | 350 ft | 8 kts | 156° |
| 2026-04-25 18:15 | 49.43353 | -2.59842 | 347 ft | 8 kts | 139° |
| 2026-04-25 18:16 | 49.43351 | -2.59775 | 348 ft | 6 kts | 76° |
| 2026-04-25 18:16 | 49.43360 | -2.59716 | 344 ft | 6 kts | 81° |
| 2026-04-25 18:16 | 49.43306 | -2.59691 | 344 ft | 6 kts | 180° |
| 2026-04-25 18:17 | 49.43268 | -2.59688 | 344 ft | 2 kts | 177° |
| 2026-04-25 18:17 | 49.43265 | -2.59688 | 344 ft | 1 kts | 177° |
| 2026-04-25 18:17 | 49.43257 | -2.59688 | 344 ft | 0 kts | 178° |